sensor_id;sensor_type;location;lat;lon;timestamp;temperature;humidity
28010;DHT22;15334;49.494;8.410;2022-11-21T00:01:27;7.60;99.90
28010;DHT22;15334;49.494;8.410;2022-11-21T00:03:55;7.70;99.90
28010;DHT22;15334;49.494;8.410;2022-11-21T00:06:24;7.70;99.90
28010;DHT22;15334;49.494;8.410;2022-11-21T00:08:55;7.70;99.90
28010;DHT22;15334;49.494;8.410;2022-11-21T00:11:26;7.70;99.90
28010;DHT22;15334;49.494;8.410;2022-11-21T00:13:54;7.70;99.90
28010;DHT22;15334;49.494;8.410;2022-11-21T00:16:22;7.70;99.90
28010;DHT22;15334;49.494;8.410;2022-11-21T00:18:50;7.60;99.90
28010;DHT22;15334;49.494;8.410;2022-11-21T00:21:18;7.60;99.90
28010;DHT22;15334;49.494;8.410;2022-11-21T00:23:47;7.60;99.90
28010;DHT22;15334;49.494;8.410;2022-11-21T00:26:16;7.50;99.90
28010;DHT22;15334;49.494;8.410;2022-11-21T00:28:51;7.50;99.90
28010;DHT22;15334;49.494;8.410;2022-11-21T00:31:20;7.50;99.90
28010;DHT22;15334;49.494;8.410;2022-11-21T00:33:48;7.50;99.90
28010;DHT22;15334;49.494;8.410;2022-11-21T00:36:16;7.40;99.90
28010;DHT22;15334;49.494;8.410;2022-11-21T00:38:45;7.40;99.90
28010;DHT22;15334;49.494;8.410;2022-11-21T00:41:13;7.40;99.90
28010;DHT22;15334;49.494;8.410;2022-11-21T00:43:41;7.40;99.90
28010;DHT22;15334;49.494;8.410;2022-11-21T00:46:10;7.30;99.90
28010;DHT22;15334;49.494;8.410;2022-11-21T00:48:40;7.30;99.90
28010;DHT22;15334;49.494;8.410;2022-11-21T00:51:08;7.30;99.90
28010;DHT22;15334;49.494;8.410;2022-11-21T00:53:36;7.30;99.90
28010;DHT22;15334;49.494;8.410;2022-11-21T00:56:04;7.30;99.90
28010;DHT22;15334;49.494;8.410;2022-11-21T00:58:32;7.30;99.90
28010;DHT22;15334;49.494;8.410;2022-11-21T01:01:04;7.20;99.90
28010;DHT22;15334;49.494;8.410;2022-11-21T01:03:34;7.20;99.90
28010;DHT22;15334;49.494;8.410;2022-11-21T01:06:04;7.20;99.90
28010;DHT22;15334;49.494;8.410;2022-11-21T01:08:35;7.10;99.90
28010;DHT22;15334;49.494;8.410;2022-11-21T01:11:07;7.10;99.90
28010;DHT22;15334;49.494;8.410;2022-11-21T01:13:35;7.00;99.90
28010;DHT22;15334;49.494;8.410;2022-11-21T01:16:05;7.00;99.90
28010;DHT22;15334;49.494;8.410;2022-11-21T01:18:35;6.90;99.90
28010;DHT22;15334;49.494;8.410;2022-11-21T01:21:06;6.90;99.90
28010;DHT22;15334;49.494;8.410;2022-11-21T01:23:34;6.80;99.90
28010;DHT22;15334;49.494;8.410;2022-11-21T01:26:03;6.80;99.90
28010;DHT22;15334;49.494;8.410;2022-11-21T01:28:31;6.80;99.90
28010;DHT22;15334;49.494;8.410;2022-11-21T01:31:03;6.80;99.90
28010;DHT22;15334;49.494;8.410;2022-11-21T01:33:31;6.70;99.90
28010;DHT22;15334;49.494;8.410;2022-11-21T01:36:10;6.70;99.90
28010;DHT22;15334;49.494;8.410;2022-11-21T01:38:39;6.80;99.90
28010;DHT22;15334;49.494;8.410;2022-11-21T01:41:08;6.80;99.90
28010;DHT22;15334;49.494;8.410;2022-11-21T01:43:39;6.80;99.90
28010;DHT22;15334;49.494;8.410;2022-11-21T01:46:11;6.70;99.90
28010;DHT22;15334;49.494;8.410;2022-11-21T01:48:46;6.70;99.90
28010;DHT22;15334;49.494;8.410;2022-11-21T01:51:19;6.70;99.90
28010;DHT22;15334;49.494;8.410;2022-11-21T01:53:52;6.70;99.90
28010;DHT22;15334;49.494;8.410;2022-11-21T01:56:23;6.70;99.90
28010;DHT22;15334;49.494;8.410;2022-11-21T01:58:55;6.70;99.90
28010;DHT22;15334;49.494;8.410;2022-11-21T02:01:25;6.70;99.90
28010;DHT22;15334;49.494;8.410;2022-11-21T02:03:55;6.80;99.90
28010;DHT22;15334;49.494;8.410;2022-11-21T02:06:25;6.80;99.90
28010;DHT22;15334;49.494;8.410;2022-11-21T02:08:54;6.80;99.90
28010;DHT22;15334;49.494;8.410;2022-11-21T02:11:29;6.80;99.90
28010;DHT22;15334;49.494;8.410;2022-11-21T02:13:59;6.80;99.90
28010;DHT22;15334;49.494;8.410;2022-11-21T02:16:28;6.80;99.90
28010;DHT22;15334;49.494;8.410;2022-11-21T02:18:56;6.70;99.90
28010;DHT22;15334;49.494;8.410;2022-11-21T02:21:33;6.80;99.90
28010;DHT22;15334;49.494;8.410;2022-11-21T02:24:10;6.80;99.90
28010;DHT22;15334;49.494;8.410;2022-11-21T02:26:40;6.80;99.90
28010;DHT22;15334;49.494;8.410;2022-11-21T02:29:09;6.90;99.90
28010;DHT22;15334;49.494;8.410;2022-11-21T02:31:39;6.90;99.90
28010;DHT22;15334;49.494;8.410;2022-11-21T02:34:07;6.90;99.90
28010;DHT22;15334;49.494;8.410;2022-11-21T02:36:41;7.00;99.90
28010;DHT22;15334;49.494;8.410;2022-11-21T02:39:14;7.00;99.90
28010;DHT22;15334;49.494;8.410;2022-11-21T02:41:53;7.00;99.90
28010;DHT22;15334;49.494;8.410;2022-11-21T02:44:26;7.00;99.90
28010;DHT22;15334;49.494;8.410;2022-11-21T02:46:56;7.00;99.90
28010;DHT22;15334;49.494;8.410;2022-11-21T02:49:31;7.00;99.90
28010;DHT22;15334;49.494;8.410;2022-11-21T02:52:01;7.00;99.90
28010;DHT22;15334;49.494;8.410;2022-11-21T02:54:29;7.00;99.90
28010;DHT22;15334;49.494;8.410;2022-11-21T02:56:58;7.10;99.90
28010;DHT22;15334;49.494;8.410;2022-11-21T02:59:26;7.10;99.90
28010;DHT22;15334;49.494;8.410;2022-11-21T03:01:55;7.20;99.90
28010;DHT22;15334;49.494;8.410;2022-11-21T03:04:25;7.10;99.90
28010;DHT22;15334;49.494;8.410;2022-11-21T03:06:55;7.20;99.90
28010;DHT22;15334;49.494;8.410;2022-11-21T03:09:23;7.10;99.90
28010;DHT22;15334;49.494;8.410;2022-11-21T03:11:51;7.20;99.90
28010;DHT22;15334;49.494;8.410;2022-11-21T03:14:20;7.20;99.90
28010;DHT22;15334;49.494;8.410;2022-11-21T03:16:48;7.20;99.90
28010;DHT22;15334;49.494;8.410;2022-11-21T03:19:16;7.30;99.90
28010;DHT22;15334;49.494;8.410;2022-11-21T03:21:44;7.20;99.90
28010;DHT22;15334;49.494;8.410;2022-11-21T03:24:12;7.30;99.90
28010;DHT22;15334;49.494;8.410;2022-11-21T03:26:41;7.30;99.90
28010;DHT22;15334;49.494;8.410;2022-11-21T03:29:09;7.30;99.90
28010;DHT22;15334;49.494;8.410;2022-11-21T03:31:38;7.30;99.90
28010;DHT22;15334;49.494;8.410;2022-11-21T03:34:06;7.30;99.90
28010;DHT22;15334;49.494;8.410;2022-11-21T03:36:35;7.30;99.90
28010;DHT22;15334;49.494;8.410;2022-11-21T03:39:03;7.30;99.90
28010;DHT22;15334;49.494;8.410;2022-11-21T03:41:32;7.30;99.90
28010;DHT22;15334;49.494;8.410;2022-11-21T03:44:03;7.30;99.90
28010;DHT22;15334;49.494;8.410;2022-11-21T03:46:33;7.30;99.90
28010;DHT22;15334;49.494;8.410;2022-11-21T03:49:04;7.30;99.90
28010;DHT22;15334;49.494;8.410;2022-11-21T03:51:33;7.30;99.90
28010;DHT22;15334;49.494;8.410;2022-11-21T03:54:01;7.20;99.90
28010;DHT22;15334;49.494;8.410;2022-11-21T03:56:29;7.20;99.90
28010;DHT22;15334;49.494;8.410;2022-11-21T03:58:58;7.10;99.90
28010;DHT22;15334;49.494;8.410;2022-11-21T04:01:26;7.10;99.90
28010;DHT22;15334;49.494;8.410;2022-11-21T04:04:01;7.10;99.90
28010;DHT22;15334;49.494;8.410;2022-11-21T04:06:30;7.00;99.90
28010;DHT22;15334;49.494;8.410;2022-11-21T04:08:58;7.10;99.90
28010;DHT22;15334;49.494;8.410;2022-11-21T04:11:26;7.10;99.90
28010;DHT22;15334;49.494;8.410;2022-11-21T04:13:54;7.10;99.90
28010;DHT22;15334;49.494;8.410;2022-11-21T04:16:22;7.10;99.90
28010;DHT22;15334;49.494;8.410;2022-11-21T04:18:50;7.10;99.90
28010;DHT22;15334;49.494;8.410;2022-11-21T04:21:19;7.00;99.90
28010;DHT22;15334;49.494;8.410;2022-11-21T04:23:48;7.10;99.90
28010;DHT22;15334;49.494;8.410;2022-11-21T04:26:16;7.00;99.90
28010;DHT22;15334;49.494;8.410;2022-11-21T04:28:44;7.00;99.90
28010;DHT22;15334;49.494;8.410;2022-11-21T04:31:12;7.10;99.90
28010;DHT22;15334;49.494;8.410;2022-11-21T04:33:40;7.10;99.90
28010;DHT22;15334;49.494;8.410;2022-11-21T04:36:08;7.10;99.90
28010;DHT22;15334;49.494;8.410;2022-11-21T04:38:37;7.10;99.90
28010;DHT22;15334;49.494;8.410;2022-11-21T04:41:06;7.20;99.90
28010;DHT22;15334;49.494;8.410;2022-11-21T04:43:34;7.20;99.90
28010;DHT22;15334;49.494;8.410;2022-11-21T04:46:02;7.30;99.90
28010;DHT22;15334;49.494;8.410;2022-11-21T04:48:30;7.30;99.90
28010;DHT22;15334;49.494;8.410;2022-11-21T04:50:59;7.40;99.90
28010;DHT22;15334;49.494;8.410;2022-11-21T04:53:27;7.40;99.90
28010;DHT22;15334;49.494;8.410;2022-11-21T04:55:55;7.40;99.90
28010;DHT22;15334;49.494;8.410;2022-11-21T04:58:24;7.50;99.90
28010;DHT22;15334;49.494;8.410;2022-11-21T05:00:52;7.50;99.90
28010;DHT22;15334;49.494;8.410;2022-11-21T05:03:20;7.50;99.90
28010;DHT22;15334;49.494;8.410;2022-11-21T05:05:48;7.60;99.90
28010;DHT22;15334;49.494;8.410;2022-11-21T05:08:17;7.60;99.90
28010;DHT22;15334;49.494;8.410;2022-11-21T05:10:45;7.70;99.90
28010;DHT22;15334;49.494;8.410;2022-11-21T05:13:32;7.70;99.90
28010;DHT22;15334;49.494;8.410;2022-11-21T05:16:00;7.70;99.90
28010;DHT22;15334;49.494;8.410;2022-11-21T05:18:28;7.70;99.90
28010;DHT22;15334;49.494;8.410;2022-11-21T05:20:56;7.70;99.90
28010;DHT22;15334;49.494;8.410;2022-11-21T05:23:24;7.70;99.90
28010;DHT22;15334;49.494;8.410;2022-11-21T05:25:52;7.70;99.90
28010;DHT22;15334;49.494;8.410;2022-11-21T05:28:20;7.70;99.90
28010;DHT22;15334;49.494;8.410;2022-11-21T05:30:50;7.70;99.90
28010;DHT22;15334;49.494;8.410;2022-11-21T05:33:18;7.70;99.90
28010;DHT22;15334;49.494;8.410;2022-11-21T05:35:53;7.70;99.90
28010;DHT22;15334;49.494;8.410;2022-11-21T05:38:38;7.70;99.90
28010;DHT22;15334;49.494;8.410;2022-11-21T05:41:06;7.70;99.90
28010;DHT22;15334;49.494;8.410;2022-11-21T05:43:48;7.60;99.90
28010;DHT22;15334;49.494;8.410;2022-11-21T05:46:43;7.70;99.90
28010;DHT22;15334;49.494;8.410;2022-11-21T05:49:28;7.60;99.90
28010;DHT22;15334;49.494;8.410;2022-11-21T05:51:57;7.60;99.90
28010;DHT22;15334;49.494;8.410;2022-11-21T05:54:25;7.50;99.90
28010;DHT22;15334;49.494;8.410;2022-11-21T05:56:53;7.50;99.90
28010;DHT22;15334;49.494;8.410;2022-11-21T05:59:22;7.50;99.90
28010;DHT22;15334;49.494;8.410;2022-11-21T06:01:51;7.50;99.90
28010;DHT22;15334;49.494;8.410;2022-11-21T06:04:37;7.50;99.90
28010;DHT22;15334;49.494;8.410;2022-11-21T06:07:05;7.50;99.90
28010;DHT22;15334;49.494;8.410;2022-11-21T06:09:33;7.50;99.90
28010;DHT22;15334;49.494;8.410;2022-11-21T06:12:04;7.50;99.90
28010;DHT22;15334;49.494;8.410;2022-11-21T06:14:35;7.50;99.90
28010;DHT22;15334;49.494;8.410;2022-11-21T06:17:04;7.50;99.90
28010;DHT22;15334;49.494;8.410;2022-11-21T06:19:32;7.50;99.90
28010;DHT22;15334;49.494;8.410;2022-11-21T06:22:00;7.50;99.90
28010;DHT22;15334;49.494;8.410;2022-11-21T06:24:28;7.60;99.90
28010;DHT22;15334;49.494;8.410;2022-11-21T06:26:57;7.60;99.90
28010;DHT22;15334;49.494;8.410;2022-11-21T06:29:25;7.60;99.90
28010;DHT22;15334;49.494;8.410;2022-11-21T06:31:53;7.60;99.90
28010;DHT22;15334;49.494;8.410;2022-11-21T06:34:24;7.60;99.90
28010;DHT22;15334;49.494;8.410;2022-11-21T06:36:53;7.60;99.90
28010;DHT22;15334;49.494;8.410;2022-11-21T06:39:23;7.60;99.90
28010;DHT22;15334;49.494;8.410;2022-11-21T06:41:51;7.60;99.90
28010;DHT22;15334;49.494;8.410;2022-11-21T06:44:19;7.60;99.90
28010;DHT22;15334;49.494;8.410;2022-11-21T06:46:47;7.60;99.90
28010;DHT22;15334;49.494;8.410;2022-11-21T06:49:17;7.60;99.90
28010;DHT22;15334;49.494;8.410;2022-11-21T06:51:47;7.60;99.90
28010;DHT22;15334;49.494;8.410;2022-11-21T06:54:15;7.60;99.90
28010;DHT22;15334;49.494;8.410;2022-11-21T06:56:43;7.60;99.90
28010;DHT22;15334;49.494;8.410;2022-11-21T06:59:11;7.60;99.90
28010;DHT22;15334;49.494;8.410;2022-11-21T07:01:39;7.60;99.90
28010;DHT22;15334;49.494;8.410;2022-11-21T07:04:07;7.60;99.90
28010;DHT22;15334;49.494;8.410;2022-11-21T07:06:35;7.50;99.90
28010;DHT22;15334;49.494;8.410;2022-11-21T07:09:05;7.50;99.90
28010;DHT22;15334;49.494;8.410;2022-11-21T07:11:53;7.50;99.90
28010;DHT22;15334;49.494;8.410;2022-11-21T07:14:41;7.50;99.90
28010;DHT22;15334;49.494;8.410;2022-11-21T07:17:10;7.50;99.90
28010;DHT22;15334;49.494;8.410;2022-11-21T07:19:38;7.60;99.90
28010;DHT22;15334;49.494;8.410;2022-11-21T07:22:07;7.60;99.90
28010;DHT22;15334;49.494;8.410;2022-11-21T07:24:36;7.70;99.90
28010;DHT22;15334;49.494;8.410;2022-11-21T07:27:04;7.60;99.90
28010;DHT22;15334;49.494;8.410;2022-11-21T07:29:32;7.60;99.90
28010;DHT22;15334;49.494;8.410;2022-11-21T07:32:00;7.60;99.90
28010;DHT22;15334;49.494;8.410;2022-11-21T07:34:28;7.50;99.90
28010;DHT22;15334;49.494;8.410;2022-11-21T07:36:56;7.50;99.90
28010;DHT22;15334;49.494;8.410;2022-11-21T07:39:24;7.50;99.90
28010;DHT22;15334;49.494;8.410;2022-11-21T07:41:54;7.40;99.90
28010;DHT22;15334;49.494;8.410;2022-11-21T07:44:22;7.40;99.90
28010;DHT22;15334;49.494;8.410;2022-11-21T07:46:55;7.30;99.90
28010;DHT22;15334;49.494;8.410;2022-11-21T07:49:23;7.30;99.90
28010;DHT22;15334;49.494;8.410;2022-11-21T07:51:51;7.20;99.90
28010;DHT22;15334;49.494;8.410;2022-11-21T07:54:19;7.10;99.90
28010;DHT22;15334;49.494;8.410;2022-11-21T07:56:48;7.10;99.90
28010;DHT22;15334;49.494;8.410;2022-11-21T07:59:17;7.10;99.90
28010;DHT22;15334;49.494;8.410;2022-11-21T08:01:45;7.10;99.90
28010;DHT22;15334;49.494;8.410;2022-11-21T08:04:14;7.10;99.90
28010;DHT22;15334;49.494;8.410;2022-11-21T08:06:42;7.10;99.90
28010;DHT22;15334;49.494;8.410;2022-11-21T08:09:10;7.10;99.90
28010;DHT22;15334;49.494;8.410;2022-11-21T08:11:38;7.20;99.90
28010;DHT22;15334;49.494;8.410;2022-11-21T08:14:08;7.20;99.90
28010;DHT22;15334;49.494;8.410;2022-11-21T08:16:37;7.20;99.90
28010;DHT22;15334;49.494;8.410;2022-11-21T08:19:05;7.30;99.90
28010;DHT22;15334;49.494;8.410;2022-11-21T08:21:34;7.30;99.90
28010;DHT22;15334;49.494;8.410;2022-11-21T08:24:05;7.30;99.90
28010;DHT22;15334;49.494;8.410;2022-11-21T08:26:36;7.40;99.90
28010;DHT22;15334;49.494;8.410;2022-11-21T08:29:04;7.40;99.90
28010;DHT22;15334;49.494;8.410;2022-11-21T08:31:33;7.40;99.90
28010;DHT22;15334;49.494;8.410;2022-11-21T08:34:02;7.50;99.90
28010;DHT22;15334;49.494;8.410;2022-11-21T08:36:33;7.50;99.90
28010;DHT22;15334;49.494;8.410;2022-11-21T08:39:01;7.50;99.90
28010;DHT22;15334;49.494;8.410;2022-11-21T08:41:29;7.40;99.90
28010;DHT22;15334;49.494;8.410;2022-11-21T08:44:15;7.50;99.90
28010;DHT22;15334;49.494;8.410;2022-11-21T08:46:43;7.40;99.90
28010;DHT22;15334;49.494;8.410;2022-11-21T08:49:12;7.40;99.90
28010;DHT22;15334;49.494;8.410;2022-11-21T08:51:41;7.50;99.90
28010;DHT22;15334;49.494;8.410;2022-11-21T08:54:09;7.60;99.90
28010;DHT22;15334;49.494;8.410;2022-11-21T08:56:37;7.70;99.90
28010;DHT22;15334;49.494;8.410;2022-11-21T08:59:07;7.90;99.90
28010;DHT22;15334;49.494;8.410;2022-11-21T09:01:47;8.00;99.90
28010;DHT22;15334;49.494;8.410;2022-11-21T09:04:22;8.20;99.90
28010;DHT22;15334;49.494;8.410;2022-11-21T09:06:51;8.30;99.90
28010;DHT22;15334;49.494;8.410;2022-11-21T09:09:21;8.40;99.90
28010;DHT22;15334;49.494;8.410;2022-11-21T09:11:51;8.50;99.90
28010;DHT22;15334;49.494;8.410;2022-11-21T09:14:19;8.60;99.90
28010;DHT22;15334;49.494;8.410;2022-11-21T09:17:05;8.70;99.90
28010;DHT22;15334;49.494;8.410;2022-11-21T09:19:52;8.80;99.90
28010;DHT22;15334;49.494;8.410;2022-11-21T09:22:20;8.80;99.90
28010;DHT22;15334;49.494;8.410;2022-11-21T09:24:48;8.70;99.90
28010;DHT22;15334;49.494;8.410;2022-11-21T09:27:16;8.70;99.90
28010;DHT22;15334;49.494;8.410;2022-11-21T09:29:44;8.60;99.90
28010;DHT22;15334;49.494;8.410;2022-11-21T09:32:19;8.50;99.90
28010;DHT22;15334;49.494;8.410;2022-11-21T09:34:48;8.50;99.90
28010;DHT22;15334;49.494;8.410;2022-11-21T09:37:17;8.60;99.90
28010;DHT22;15334;49.494;8.410;2022-11-21T09:39:48;8.70;99.90
28010;DHT22;15334;49.494;8.410;2022-11-21T09:42:35;8.80;99.90
28010;DHT22;15334;49.494;8.410;2022-11-21T09:45:10;8.90;99.90
28010;DHT22;15334;49.494;8.410;2022-11-21T09:47:42;9.10;99.90
28010;DHT22;15334;49.494;8.410;2022-11-21T09:50:26;9.20;99.90
28010;DHT22;15334;49.494;8.410;2022-11-21T09:53:00;9.30;99.90
28010;DHT22;15334;49.494;8.410;2022-11-21T09:55:38;9.40;99.90
28010;DHT22;15334;49.494;8.410;2022-11-21T09:58:15;9.50;99.90
28010;DHT22;15334;49.494;8.410;2022-11-21T10:00:48;9.40;99.90
28010;DHT22;15334;49.494;8.410;2022-11-21T10:03:19;9.40;99.90
28010;DHT22;15334;49.494;8.410;2022-11-21T10:05:51;9.40;99.90
28010;DHT22;15334;49.494;8.410;2022-11-21T10:08:33;9.40;99.90
28010;DHT22;15334;49.494;8.410;2022-11-21T10:11:10;9.30;99.90
28010;DHT22;15334;49.494;8.410;2022-11-21T10:13:56;9.30;99.90
28010;DHT22;15334;49.494;8.410;2022-11-21T10:16:38;9.30;99.90
28010;DHT22;15334;49.494;8.410;2022-11-21T10:19:18;9.30;99.90
28010;DHT22;15334;49.494;8.410;2022-11-21T10:22:04;9.40;99.90
28010;DHT22;15334;49.494;8.410;2022-11-21T10:24:49;9.40;99.90
28010;DHT22;15334;49.494;8.410;2022-11-21T10:27:26;9.40;99.90
28010;DHT22;15334;49.494;8.410;2022-11-21T10:29:59;9.50;99.90
28010;DHT22;15334;49.494;8.410;2022-11-21T10:32:35;9.40;99.90
28010;DHT22;15334;49.494;8.410;2022-11-21T10:35:13;9.40;99.90
28010;DHT22;15334;49.494;8.410;2022-11-21T10:37:46;9.30;99.90
28010;DHT22;15334;49.494;8.410;2022-11-21T10:40:27;9.40;99.90
28010;DHT22;15334;49.494;8.410;2022-11-21T10:42:59;9.40;99.90
28010;DHT22;15334;49.494;8.410;2022-11-21T10:45:50;9.60;99.90
28010;DHT22;15334;49.494;8.410;2022-11-21T10:48:19;10.20;99.90
28010;DHT22;15334;49.494;8.410;2022-11-21T10:51:01;11.20;99.90
28010;DHT22;15334;49.494;8.410;2022-11-21T10:53:34;12.30;99.90
28010;DHT22;15334;49.494;8.410;2022-11-21T10:56:22;13.40;99.90
28010;DHT22;15334;49.494;8.410;2022-11-21T10:58:53;14.30;99.90
28010;DHT22;15334;49.494;8.410;2022-11-21T11:01:25;14.60;99.90
28010;DHT22;15334;49.494;8.410;2022-11-21T11:04:10;14.60;99.90
28010;DHT22;15334;49.494;8.410;2022-11-21T11:07:20;14.80;99.90
28010;DHT22;15334;49.494;8.410;2022-11-21T11:09:48;16.10;99.90
28010;DHT22;15334;49.494;8.410;2022-11-21T11:12:26;15.90;99.90
28010;DHT22;15334;49.494;8.410;2022-11-21T11:15:15;16.00;99.90
28010;DHT22;15334;49.494;8.410;2022-11-21T11:17:49;15.50;99.90
28010;DHT22;15334;49.494;8.410;2022-11-21T11:20:33;15.60;99.90
28010;DHT22;15334;49.494;8.410;2022-11-21T11:23:23;15.90;99.90
28010;DHT22;15334;49.494;8.410;2022-11-21T11:25:53;16.10;99.90
28010;DHT22;15334;49.494;8.410;2022-11-21T11:28:35;16.40;99.90
28010;DHT22;15334;49.494;8.410;2022-11-21T11:31:03;16.80;99.90
28010;DHT22;15334;49.494;8.410;2022-11-21T11:33:36;16.90;99.90
28010;DHT22;15334;49.494;8.410;2022-11-21T11:36:11;16.90;99.90
28010;DHT22;15334;49.494;8.410;2022-11-21T11:38:47;16.50;99.90
28010;DHT22;15334;49.494;8.410;2022-11-21T11:41:33;16.10;99.90
28010;DHT22;15334;49.494;8.410;2022-11-21T11:44:31;15.40;99.90
28010;DHT22;15334;49.494;8.410;2022-11-21T11:47:22;14.90;99.90
28010;DHT22;15334;49.494;8.410;2022-11-21T11:50:03;14.80;99.90
28010;DHT22;15334;49.494;8.410;2022-11-21T11:52:48;14.90;99.90
28010;DHT22;15334;49.494;8.410;2022-11-21T11:55:21;14.90;99.90
28010;DHT22;15334;49.494;8.410;2022-11-21T11:57:52;14.60;99.90
28010;DHT22;15334;49.494;8.410;2022-11-21T12:00:29;14.40;99.90
28010;DHT22;15334;49.494;8.410;2022-11-21T12:03:02;14.10;99.90
28010;DHT22;15334;49.494;8.410;2022-11-21T12:05:33;13.40;99.90
28010;DHT22;15334;49.494;8.410;2022-11-21T12:08:09;12.90;99.90
28010;DHT22;15334;49.494;8.410;2022-11-21T12:11:02;12.30;99.90
28010;DHT22;15334;49.494;8.410;2022-11-21T12:13:52;11.50;99.90
28010;DHT22;15334;49.494;8.410;2022-11-21T12:16:28;11.20;99.90
28010;DHT22;15334;49.494;8.410;2022-11-21T12:18:59;11.00;99.90
28010;DHT22;15334;49.494;8.410;2022-11-21T12:21:29;10.90;99.90
28010;DHT22;15334;49.494;8.410;2022-11-21T12:24:01;10.80;99.90
28010;DHT22;15334;49.494;8.410;2022-11-21T12:26:44;10.70;99.90
28010;DHT22;15334;49.494;8.410;2022-11-21T12:29:24;10.70;99.90
28010;DHT22;15334;49.494;8.410;2022-11-21T12:32:09;10.80;99.90
28010;DHT22;15334;49.494;8.410;2022-11-21T12:34:51;10.90;99.90
28010;DHT22;15334;49.494;8.410;2022-11-21T12:37:32;10.90;99.90
28010;DHT22;15334;49.494;8.410;2022-11-21T12:40:24;11.00;99.90
28010;DHT22;15334;49.494;8.410;2022-11-21T12:42:58;11.10;99.90
28010;DHT22;15334;49.494;8.410;2022-11-21T12:45:30;11.60;99.90
28010;DHT22;15334;49.494;8.410;2022-11-21T12:48:18;13.40;99.90
28010;DHT22;15334;49.494;8.410;2022-11-21T12:51:14;15.50;99.90
28010;DHT22;15334;49.494;8.410;2022-11-21T12:54:12;17.50;99.90
28010;DHT22;15334;49.494;8.410;2022-11-21T12:57:07;18.30;99.90
28010;DHT22;15334;49.494;8.410;2022-11-21T12:59:46;18.20;99.90
28010;DHT22;15334;49.494;8.410;2022-11-21T13:02:25;16.70;99.90
28010;DHT22;15334;49.494;8.410;2022-11-21T13:04:58;15.30;99.90
28010;DHT22;15334;49.494;8.410;2022-11-21T13:07:27;14.70;99.90
28010;DHT22;15334;49.494;8.410;2022-11-21T13:09:58;14.00;99.90
28010;DHT22;15334;49.494;8.410;2022-11-21T13:12:34;13.50;99.90
28010;DHT22;15334;49.494;8.410;2022-11-21T13:15:17;13.30;99.90
28010;DHT22;15334;49.494;8.410;2022-11-21T13:17:49;13.00;99.90
28010;DHT22;15334;49.494;8.410;2022-11-21T13:20:28;12.60;99.90
28010;DHT22;15334;49.494;8.410;2022-11-21T13:22:59;12.40;99.90
28010;DHT22;15334;49.494;8.410;2022-11-21T13:25:36;12.20;99.90
28010;DHT22;15334;49.494;8.410;2022-11-21T13:28:30;11.90;99.90
28010;DHT22;15334;49.494;8.410;2022-11-21T13:31:01;11.80;99.90
28010;DHT22;15334;49.494;8.410;2022-11-21T13:33:49;11.70;99.90
28010;DHT22;15334;49.494;8.410;2022-11-21T13:36:39;11.60;99.90
28010;DHT22;15334;49.494;8.410;2022-11-21T13:39:33;11.60;99.90
28010;DHT22;15334;49.494;8.410;2022-11-21T13:42:11;11.50;99.90
28010;DHT22;15334;49.494;8.410;2022-11-21T13:44:57;11.50;99.90
28010;DHT22;15334;49.494;8.410;2022-11-21T13:47:52;11.60;99.90
28010;DHT22;15334;49.494;8.410;2022-11-21T13:50:48;11.50;99.90
28010;DHT22;15334;49.494;8.410;2022-11-21T13:54:02;11.40;99.90
28010;DHT22;15334;49.494;8.410;2022-11-21T13:56:34;11.30;99.90
28010;DHT22;15334;49.494;8.410;2022-11-21T13:59:30;11.20;99.90
28010;DHT22;15334;49.494;8.410;2022-11-21T14:08:16;10.90;99.90
28010;DHT22;15334;49.494;8.410;2022-11-21T14:10:47;10.80;99.90
28010;DHT22;15334;49.494;8.410;2022-11-21T14:13:21;10.70;99.90
28010;DHT22;15334;49.494;8.410;2022-11-21T14:16:06;10.60;99.90
28010;DHT22;15334;49.494;8.410;2022-11-21T14:18:37;10.40;99.90
28010;DHT22;15334;49.494;8.410;2022-11-21T14:21:18;10.40;99.90
28010;DHT22;15334;49.494;8.410;2022-11-21T14:23:46;10.30;99.90
28010;DHT22;15334;49.494;8.410;2022-11-21T14:26:18;10.30;99.90
28010;DHT22;15334;49.494;8.410;2022-11-21T14:28:47;10.20;99.90
28010;DHT22;15334;49.494;8.410;2022-11-21T14:31:15;10.10;99.90
28010;DHT22;15334;49.494;8.410;2022-11-21T14:33:44;10.10;99.90
28010;DHT22;15334;49.494;8.410;2022-11-21T14:36:14;10.00;99.90
28010;DHT22;15334;49.494;8.410;2022-11-21T14:38:45;10.00;99.90
28010;DHT22;15334;49.494;8.410;2022-11-21T14:41:36;10.00;99.90
28010;DHT22;15334;49.494;8.410;2022-11-21T14:44:16;10.00;99.90
28010;DHT22;15334;49.494;8.410;2022-11-21T14:46:45;10.00;99.90
28010;DHT22;15334;49.494;8.410;2022-11-21T14:49:22;9.90;99.90
28010;DHT22;15334;49.494;8.410;2022-11-21T14:51:56;9.90;99.90
28010;DHT22;15334;49.494;8.410;2022-11-21T14:54:28;9.90;99.90
28010;DHT22;15334;49.494;8.410;2022-11-21T14:57:00;9.90;99.90
28010;DHT22;15334;49.494;8.410;2022-11-21T14:59:31;9.90;99.90
28010;DHT22;15334;49.494;8.410;2022-11-21T15:02:01;9.90;99.90
28010;DHT22;15334;49.494;8.410;2022-11-21T15:04:35;9.90;99.90
28010;DHT22;15334;49.494;8.410;2022-11-21T15:07:03;9.80;99.90
28010;DHT22;15334;49.494;8.410;2022-11-21T15:09:32;9.70;99.90
28010;DHT22;15334;49.494;8.410;2022-11-21T15:12:26;9.60;99.90
28010;DHT22;15334;49.494;8.410;2022-11-21T15:14:58;9.60;99.90
28010;DHT22;15334;49.494;8.410;2022-11-21T15:17:27;9.50;99.90
28010;DHT22;15334;49.494;8.410;2022-11-21T15:20:15;9.50;99.90
28010;DHT22;15334;49.494;8.410;2022-11-21T15:22:46;9.40;99.90
28010;DHT22;15334;49.494;8.410;2022-11-21T15:25:17;9.30;99.90
28010;DHT22;15334;49.494;8.410;2022-11-21T15:27:48;9.30;99.90
28010;DHT22;15334;49.494;8.410;2022-11-21T15:30:25;9.10;99.90
28010;DHT22;15334;49.494;8.410;2022-11-21T15:33:01;9.10;99.90
28010;DHT22;15334;49.494;8.410;2022-11-21T15:35:40;9.10;99.90
28010;DHT22;15334;49.494;8.410;2022-11-21T15:38:30;9.00;99.90
28010;DHT22;15334;49.494;8.410;2022-11-21T15:41:22;8.90;99.90
28010;DHT22;15334;49.494;8.410;2022-11-21T15:43:53;8.80;99.90
28010;DHT22;15334;49.494;8.410;2022-11-21T15:46:23;8.70;99.90
28010;DHT22;15334;49.494;8.410;2022-11-21T15:48:53;8.60;99.90
28010;DHT22;15334;49.494;8.410;2022-11-21T15:51:23;8.60;99.90
28010;DHT22;15334;49.494;8.410;2022-11-21T15:54:12;8.60;99.90
28010;DHT22;15334;49.494;8.410;2022-11-21T15:56:41;8.60;99.90
28010;DHT22;15334;49.494;8.410;2022-11-21T15:59:10;8.60;99.90
28010;DHT22;15334;49.494;8.410;2022-11-21T16:01:38;8.50;99.90
28010;DHT22;15334;49.494;8.410;2022-11-21T16:04:08;8.50;99.90
28010;DHT22;15334;49.494;8.410;2022-11-21T16:06:37;8.40;99.90
28010;DHT22;15334;49.494;8.410;2022-11-21T16:09:05;8.30;99.90
28010;DHT22;15334;49.494;8.410;2022-11-21T16:11:35;8.20;99.90
28010;DHT22;15334;49.494;8.410;2022-11-21T16:14:06;8.10;99.90
28010;DHT22;15334;49.494;8.410;2022-11-21T16:16:37;8.00;99.90
28010;DHT22;15334;49.494;8.410;2022-11-21T16:19:12;8.00;99.90
28010;DHT22;15334;49.494;8.410;2022-11-21T16:21:41;7.90;99.90
28010;DHT22;15334;49.494;8.410;2022-11-21T16:24:09;7.90;99.90
28010;DHT22;15334;49.494;8.410;2022-11-21T16:26:37;7.90;99.90